sensor_id;sensor_type;location;lat;lon;timestamp;temperature;humidity
22908;DHT22;11620;50.050;8.690;2023-08-31T00:00:45;13.10;99.90
22908;DHT22;11620;50.050;8.690;2023-08-31T00:03:32;13.10;99.90
22908;DHT22;11620;50.050;8.690;2023-08-31T00:06:18;13.20;99.90
22908;DHT22;11620;50.050;8.690;2023-08-31T00:09:04;13.20;99.90
22908;DHT22;11620;50.050;8.690;2023-08-31T00:11:55;13.30;99.90
22908;DHT22;11620;50.050;8.690;2023-08-31T00:14:42;13.30;99.90
22908;DHT22;11620;50.050;8.690;2023-08-31T00:17:29;13.30;99.90
22908;DHT22;11620;50.050;8.690;2023-08-31T00:20:16;13.20;99.90
22908;DHT22;11620;50.050;8.690;2023-08-31T00:23:03;13.00;99.90
22908;DHT22;11620;50.050;8.690;2023-08-31T00:25:49;12.90;99.90
22908;DHT22;11620;50.050;8.690;2023-08-31T00:28:39;12.90;99.90
22908;DHT22;11620;50.050;8.690;2023-08-31T00:31:28;13.00;99.90
22908;DHT22;11620;50.050;8.690;2023-08-31T00:34:17;12.90;99.90
22908;DHT22;11620;50.050;8.690;2023-08-31T00:37:03;12.90;99.90
22908;DHT22;11620;50.050;8.690;2023-08-31T00:39:50;12.70;99.90
22908;DHT22;11620;50.050;8.690;2023-08-31T00:42:38;12.50;99.90
22908;DHT22;11620;50.050;8.690;2023-08-31T00:45:24;12.50;99.90
22908;DHT22;11620;50.050;8.690;2023-08-31T00:48:12;12.40;99.90
22908;DHT22;11620;50.050;8.690;2023-08-31T00:51:01;12.40;99.90
22908;DHT22;11620;50.050;8.690;2023-08-31T00:53:47;12.60;99.90
22908;DHT22;11620;50.050;8.690;2023-08-31T00:56:34;12.60;99.90
22908;DHT22;11620;50.050;8.690;2023-08-31T00:59:21;12.60;99.90
22908;DHT22;11620;50.050;8.690;2023-08-31T01:02:17;12.40;99.90
22908;DHT22;11620;50.050;8.690;2023-08-31T01:05:13;12.60;99.90
22908;DHT22;11620;50.050;8.690;2023-08-31T01:08:14;12.60;99.90
22908;DHT22;11620;50.050;8.690;2023-08-31T01:11:24;12.60;99.90
22908;DHT22;11620;50.050;8.690;2023-08-31T01:14:17;12.40;99.90
22908;DHT22;11620;50.050;8.690;2023-08-31T01:17:07;12.40;99.90
22908;DHT22;11620;50.050;8.690;2023-08-31T01:19:58;12.30;99.90
22908;DHT22;11620;50.050;8.690;2023-08-31T01:23:06;12.30;99.90
22908;DHT22;11620;50.050;8.690;2023-08-31T01:25:52;12.40;99.90
22908;DHT22;11620;50.050;8.690;2023-08-31T01:28:39;12.30;99.90
22908;DHT22;11620;50.050;8.690;2023-08-31T01:31:26;12.40;99.90
22908;DHT22;11620;50.050;8.690;2023-08-31T01:34:12;12.50;99.90
22908;DHT22;11620;50.050;8.690;2023-08-31T01:37:01;12.40;99.90
22908;DHT22;11620;50.050;8.690;2023-08-31T01:39:54;12.20;99.90
22908;DHT22;11620;50.050;8.690;2023-08-31T01:42:43;12.20;99.90
22908;DHT22;11620;50.050;8.690;2023-08-31T01:45:30;12.20;99.90
22908;DHT22;11620;50.050;8.690;2023-08-31T01:48:17;12.30;99.90
22908;DHT22;11620;50.050;8.690;2023-08-31T01:51:04;12.40;99.90
22908;DHT22;11620;50.050;8.690;2023-08-31T01:53:51;12.40;99.90
22908;DHT22;11620;50.050;8.690;2023-08-31T01:56:38;12.50;99.90
22908;DHT22;11620;50.050;8.690;2023-08-31T01:59:24;12.50;99.90
22908;DHT22;11620;50.050;8.690;2023-08-31T02:02:10;12.30;99.90
22908;DHT22;11620;50.050;8.690;2023-08-31T02:04:56;12.40;99.90
22908;DHT22;11620;50.050;8.690;2023-08-31T02:07:43;12.20;99.90
22908;DHT22;11620;50.050;8.690;2023-08-31T02:10:29;12.10;99.90
22908;DHT22;11620;50.050;8.690;2023-08-31T02:13:16;12.10;99.90
22908;DHT22;11620;50.050;8.690;2023-08-31T02:16:02;12.10;99.90
22908;DHT22;11620;50.050;8.690;2023-08-31T02:18:48;12.00;99.90
22908;DHT22;11620;50.050;8.690;2023-08-31T02:21:35;12.00;99.90
22908;DHT22;11620;50.050;8.690;2023-08-31T02:24:21;11.90;99.90
22908;DHT22;11620;50.050;8.690;2023-08-31T02:27:07;12.10;99.90
22908;DHT22;11620;50.050;8.690;2023-08-31T02:29:54;12.00;99.90
22908;DHT22;11620;50.050;8.690;2023-08-31T02:32:40;12.10;99.90
22908;DHT22;11620;50.050;8.690;2023-08-31T02:35:26;12.20;99.90
22908;DHT22;11620;50.050;8.690;2023-08-31T02:38:13;12.30;99.90
22908;DHT22;11620;50.050;8.690;2023-08-31T02:40:59;12.40;99.90
22908;DHT22;11620;50.050;8.690;2023-08-31T02:43:45;12.50;99.90
22908;DHT22;11620;50.050;8.690;2023-08-31T02:46:32;12.60;99.90
22908;DHT22;11620;50.050;8.690;2023-08-31T02:49:18;12.60;99.90
22908;DHT22;11620;50.050;8.690;2023-08-31T02:52:05;12.40;99.90
22908;DHT22;11620;50.050;8.690;2023-08-31T02:54:51;12.40;99.90
22908;DHT22;11620;50.050;8.690;2023-08-31T02:57:37;12.40;99.90
22908;DHT22;11620;50.050;8.690;2023-08-31T03:00:23;12.30;99.90
22908;DHT22;11620;50.050;8.690;2023-08-31T03:03:10;12.40;99.90
22908;DHT22;11620;50.050;8.690;2023-08-31T03:05:56;12.40;99.90
22908;DHT22;11620;50.050;8.690;2023-08-31T03:08:42;12.50;99.90
22908;DHT22;11620;50.050;8.690;2023-08-31T03:11:30;12.30;99.90
22908;DHT22;11620;50.050;8.690;2023-08-31T03:14:16;12.20;99.90
22908;DHT22;11620;50.050;8.690;2023-08-31T03:17:03;12.20;99.90
22908;DHT22;11620;50.050;8.690;2023-08-31T03:19:49;12.10;99.90
22908;DHT22;11620;50.050;8.690;2023-08-31T03:22:36;12.20;99.90
22908;DHT22;11620;50.050;8.690;2023-08-31T03:25:22;11.90;99.90
22908;DHT22;11620;50.050;8.690;2023-08-31T03:28:09;11.80;99.90
22908;DHT22;11620;50.050;8.690;2023-08-31T03:30:56;11.90;99.90
22908;DHT22;11620;50.050;8.690;2023-08-31T03:33:43;11.80;99.90
22908;DHT22;11620;50.050;8.690;2023-08-31T03:36:29;11.80;99.90
22908;DHT22;11620;50.050;8.690;2023-08-31T03:39:15;11.90;99.90
22908;DHT22;11620;50.050;8.690;2023-08-31T03:42:02;11.80;99.90
22908;DHT22;11620;50.050;8.690;2023-08-31T03:44:48;11.60;99.90
22908;DHT22;11620;50.050;8.690;2023-08-31T03:47:34;11.60;99.90
22908;DHT22;11620;50.050;8.690;2023-08-31T03:50:21;11.40;99.90
22908;DHT22;11620;50.050;8.690;2023-08-31T03:53:07;11.50;99.90
22908;DHT22;11620;50.050;8.690;2023-08-31T03:55:53;11.50;99.90
22908;DHT22;11620;50.050;8.690;2023-08-31T03:58:40;11.70;99.90
22908;DHT22;11620;50.050;8.690;2023-08-31T04:01:26;11.70;99.90
22908;DHT22;11620;50.050;8.690;2023-08-31T04:04:14;11.80;99.90
22908;DHT22;11620;50.050;8.690;2023-08-31T04:07:00;11.80;99.90
22908;DHT22;11620;50.050;8.690;2023-08-31T04:09:47;11.80;99.90
22908;DHT22;11620;50.050;8.690;2023-08-31T04:12:33;11.80;99.90
22908;DHT22;11620;50.050;8.690;2023-08-31T04:15:20;11.90;99.90
22908;DHT22;11620;50.050;8.690;2023-08-31T04:18:07;11.80;99.90
22908;DHT22;11620;50.050;8.690;2023-08-31T04:20:53;11.60;99.90
22908;DHT22;11620;50.050;8.690;2023-08-31T04:23:40;11.70;99.90
22908;DHT22;11620;50.050;8.690;2023-08-31T04:26:26;11.80;99.90
22908;DHT22;11620;50.050;8.690;2023-08-31T04:29:13;11.80;99.90
22908;DHT22;11620;50.050;8.690;2023-08-31T04:32:00;11.80;99.90
22908;DHT22;11620;50.050;8.690;2023-08-31T04:34:46;11.90;99.90
22908;DHT22;11620;50.050;8.690;2023-08-31T04:37:33;12.00;99.90
22908;DHT22;11620;50.050;8.690;2023-08-31T04:40:19;12.10;99.90
22908;DHT22;11620;50.050;8.690;2023-08-31T04:43:05;12.20;99.90
22908;DHT22;11620;50.050;8.690;2023-08-31T04:45:53;12.20;99.90
22908;DHT22;11620;50.050;8.690;2023-08-31T04:48:39;12.20;99.90
22908;DHT22;11620;50.050;8.690;2023-08-31T04:51:30;12.10;99.90
22908;DHT22;11620;50.050;8.690;2023-08-31T04:54:16;12.00;99.90
22908;DHT22;11620;50.050;8.690;2023-08-31T04:57:02;11.80;99.90
22908;DHT22;11620;50.050;8.690;2023-08-31T04:59:49;11.60;99.90
22908;DHT22;11620;50.050;8.690;2023-08-31T05:02:36;11.60;99.90
22908;DHT22;11620;50.050;8.690;2023-08-31T05:05:22;11.70;99.90
22908;DHT22;11620;50.050;8.690;2023-08-31T05:08:08;11.80;99.90
22908;DHT22;11620;50.050;8.690;2023-08-31T05:10:55;11.60;99.90
22908;DHT22;11620;50.050;8.690;2023-08-31T05:13:41;11.50;99.90
22908;DHT22;11620;50.050;8.690;2023-08-31T05:16:30;11.50;99.90
22908;DHT22;11620;50.050;8.690;2023-08-31T05:19:16;11.40;99.90
22908;DHT22;11620;50.050;8.690;2023-08-31T05:22:03;11.40;99.90
22908;DHT22;11620;50.050;8.690;2023-08-31T05:24:49;11.40;99.90
22908;DHT22;11620;50.050;8.690;2023-08-31T05:27:35;11.50;99.90
22908;DHT22;11620;50.050;8.690;2023-08-31T05:30:22;11.60;99.90
22908;DHT22;11620;50.050;8.690;2023-08-31T05:33:08;11.40;99.90
22908;DHT22;11620;50.050;8.690;2023-08-31T05:35:54;11.40;99.90
22908;DHT22;11620;50.050;8.690;2023-08-31T05:38:41;11.40;99.90
22908;DHT22;11620;50.050;8.690;2023-08-31T05:41:27;11.40;99.90
22908;DHT22;11620;50.050;8.690;2023-08-31T05:44:13;11.50;99.90
22908;DHT22;11620;50.050;8.690;2023-08-31T05:47:00;11.40;99.90
22908;DHT22;11620;50.050;8.690;2023-08-31T05:49:46;11.40;99.90
22908;DHT22;11620;50.050;8.690;2023-08-31T05:52:32;11.40;99.90
22908;DHT22;11620;50.050;8.690;2023-08-31T05:55:19;11.50;99.90
22908;DHT22;11620;50.050;8.690;2023-08-31T05:58:05;11.50;99.90
22908;DHT22;11620;50.050;8.690;2023-08-31T06:00:51;11.60;99.90
22908;DHT22;11620;50.050;8.690;2023-08-31T06:03:38;11.80;99.90
22908;DHT22;11620;50.050;8.690;2023-08-31T06:06:24;11.70;99.90
22908;DHT22;11620;50.050;8.690;2023-08-31T06:09:10;11.90;99.90
22908;DHT22;11620;50.050;8.690;2023-08-31T06:11:57;11.90;99.90
22908;DHT22;11620;50.050;8.690;2023-08-31T06:14:43;12.00;99.90
22908;DHT22;11620;50.050;8.690;2023-08-31T06:17:29;12.20;99.90
22908;DHT22;11620;50.050;8.690;2023-08-31T06:20:16;12.50;99.90
22908;DHT22;11620;50.050;8.690;2023-08-31T06:23:03;12.40;99.90
22908;DHT22;11620;50.050;8.690;2023-08-31T06:25:49;12.50;99.90
22908;DHT22;11620;50.050;8.690;2023-08-31T06:28:35;12.50;99.90
22908;DHT22;11620;50.050;8.690;2023-08-31T06:31:22;12.20;99.90
22908;DHT22;11620;50.050;8.690;2023-08-31T06:34:08;12.30;99.90
22908;DHT22;11620;50.050;8.690;2023-08-31T06:36:54;12.30;99.90
22908;DHT22;11620;50.050;8.690;2023-08-31T06:39:41;12.20;99.90
22908;DHT22;11620;50.050;8.690;2023-08-31T06:42:27;12.20;99.90
22908;DHT22;11620;50.050;8.690;2023-08-31T06:45:13;12.50;99.90
22908;DHT22;11620;50.050;8.690;2023-08-31T06:48:00;12.30;99.90
22908;DHT22;11620;50.050;8.690;2023-08-31T06:50:47;12.70;99.90
22908;DHT22;11620;50.050;8.690;2023-08-31T06:53:33;12.80;99.90
22908;DHT22;11620;50.050;8.690;2023-08-31T06:56:20;12.80;99.90
22908;DHT22;11620;50.050;8.690;2023-08-31T06:59:06;13.30;99.90
22908;DHT22;11620;50.050;8.690;2023-08-31T07:01:52;13.50;99.90
22908;DHT22;11620;50.050;8.690;2023-08-31T07:04:39;13.30;99.90
22908;DHT22;11620;50.050;8.690;2023-08-31T07:07:25;13.40;99.90
22908;DHT22;11620;50.050;8.690;2023-08-31T07:10:11;13.40;99.90
22908;DHT22;11620;50.050;8.690;2023-08-31T07:12:58;13.50;99.90
22908;DHT22;11620;50.050;8.690;2023-08-31T07:15:44;13.80;99.90
22908;DHT22;11620;50.050;8.690;2023-08-31T07:18:30;13.70;99.90
22908;DHT22;11620;50.050;8.690;2023-08-31T07:21:17;13.60;99.90
22908;DHT22;11620;50.050;8.690;2023-08-31T07:24:04;13.40;99.90
22908;DHT22;11620;50.050;8.690;2023-08-31T07:26:50;13.50;99.90
22908;DHT22;11620;50.050;8.690;2023-08-31T07:29:37;13.30;99.90
22908;DHT22;11620;50.050;8.690;2023-08-31T07:32:23;13.40;99.90
22908;DHT22;11620;50.050;8.690;2023-08-31T07:35:09;13.40;99.90
22908;DHT22;11620;50.050;8.690;2023-08-31T07:37:56;13.40;99.90
22908;DHT22;11620;50.050;8.690;2023-08-31T07:40:42;13.60;99.90
22908;DHT22;11620;50.050;8.690;2023-08-31T07:43:28;13.70;99.90
22908;DHT22;11620;50.050;8.690;2023-08-31T07:46:17;13.70;99.90
22908;DHT22;11620;50.050;8.690;2023-08-31T07:49:03;13.90;99.90
22908;DHT22;11620;50.050;8.690;2023-08-31T07:51:50;13.80;99.90
22908;DHT22;11620;50.050;8.690;2023-08-31T07:54:36;13.90;99.90
22908;DHT22;11620;50.050;8.690;2023-08-31T07:57:23;14.00;99.90
22908;DHT22;11620;50.050;8.690;2023-08-31T08:00:09;13.90;99.90
22908;DHT22;11620;50.050;8.690;2023-08-31T08:02:56;13.90;99.90
22908;DHT22;11620;50.050;8.690;2023-08-31T08:05:42;14.10;99.90
22908;DHT22;11620;50.050;8.690;2023-08-31T08:08:28;14.20;99.90
22908;DHT22;11620;50.050;8.690;2023-08-31T08:11:15;14.40;99.90
22908;DHT22;11620;50.050;8.690;2023-08-31T08:14:01;14.20;99.90
22908;DHT22;11620;50.050;8.690;2023-08-31T08:16:49;14.30;99.90
22908;DHT22;11620;50.050;8.690;2023-08-31T08:19:35;14.30;99.90
22908;DHT22;11620;50.050;8.690;2023-08-31T08:22:21;13.80;99.90
22908;DHT22;11620;50.050;8.690;2023-08-31T08:25:08;13.80;99.90
22908;DHT22;11620;50.050;8.690;2023-08-31T08:27:54;13.70;99.90
22908;DHT22;11620;50.050;8.690;2023-08-31T08:30:41;13.70;99.90
22908;DHT22;11620;50.050;8.690;2023-08-31T08:33:27;13.50;99.90
22908;DHT22;11620;50.050;8.690;2023-08-31T08:36:13;13.60;99.90
22908;DHT22;11620;50.050;8.690;2023-08-31T08:39:00;13.80;99.90
22908;DHT22;11620;50.050;8.690;2023-08-31T08:41:46;13.90;99.90
22908;DHT22;11620;50.050;8.690;2023-08-31T08:44:33;13.90;99.90
22908;DHT22;11620;50.050;8.690;2023-08-31T08:47:21;13.80;99.90
22908;DHT22;11620;50.050;8.690;2023-08-31T08:50:08;13.70;99.90
22908;DHT22;11620;50.050;8.690;2023-08-31T08:52:55;13.90;99.90
22908;DHT22;11620;50.050;8.690;2023-08-31T08:55:42;14.10;99.90
22908;DHT22;11620;50.050;8.690;2023-08-31T08:58:28;14.10;99.90
22908;DHT22;11620;50.050;8.690;2023-08-31T09:01:15;14.10;99.90
22908;DHT22;11620;50.050;8.690;2023-08-31T09:04:04;14.00;99.90
22908;DHT22;11620;50.050;8.690;2023-08-31T09:06:53;14.20;99.90
22908;DHT22;11620;50.050;8.690;2023-08-31T09:09:50;14.20;99.90
22908;DHT22;11620;50.050;8.690;2023-08-31T09:12:37;14.30;99.90
22908;DHT22;11620;50.050;8.690;2023-08-31T09:15:25;14.70;99.90
22908;DHT22;11620;50.050;8.690;2023-08-31T09:21:11;14.80;99.90
22908;DHT22;11620;50.050;8.690;2023-08-31T09:23:57;14.80;99.90
22908;DHT22;11620;50.050;8.690;2023-08-31T09:26:44;14.80;99.90
22908;DHT22;11620;50.050;8.690;2023-08-31T09:29:32;14.60;99.90
22908;DHT22;11620;50.050;8.690;2023-08-31T09:32:19;14.80;99.90
22908;DHT22;11620;50.050;8.690;2023-08-31T09:35:08;14.80;99.90
22908;DHT22;11620;50.050;8.690;2023-08-31T09:37:58;14.90;99.90
22908;DHT22;11620;50.050;8.690;2023-08-31T09:40:44;15.60;99.90
22908;DHT22;11620;50.050;8.690;2023-08-31T09:43:31;16.20;99.90
22908;DHT22;11620;50.050;8.690;2023-08-31T09:46:18;16.30;99.90
22908;DHT22;11620;50.050;8.690;2023-08-31T09:49:05;16.40;99.90
22908;DHT22;11620;50.050;8.690;2023-08-31T09:51:52;16.30;99.90
22908;DHT22;11620;50.050;8.690;2023-08-31T09:54:39;16.50;99.90
22908;DHT22;11620;50.050;8.690;2023-08-31T09:57:26;16.70;99.90
22908;DHT22;11620;50.050;8.690;2023-08-31T10:00:13;16.40;99.90
22908;DHT22;11620;50.050;8.690;2023-08-31T10:03:04;16.40;99.90
22908;DHT22;11620;50.050;8.690;2023-08-31T10:05:51;16.50;99.90
22908;DHT22;11620;50.050;8.690;2023-08-31T10:08:37;16.10;99.90
22908;DHT22;11620;50.050;8.690;2023-08-31T10:11:24;16.00;99.90
22908;DHT22;11620;50.050;8.690;2023-08-31T10:14:11;15.90;99.90
22908;DHT22;11620;50.050;8.690;2023-08-31T10:16:58;15.90;99.90
22908;DHT22;11620;50.050;8.690;2023-08-31T10:19:45;16.30;99.90
22908;DHT22;11620;50.050;8.690;2023-08-31T10:22:31;16.30;99.90
22908;DHT22;11620;50.050;8.690;2023-08-31T10:25:18;16.60;99.90
22908;DHT22;11620;50.050;8.690;2023-08-31T10:28:19;16.60;99.90
22908;DHT22;11620;50.050;8.690;2023-08-31T10:31:15;16.70;99.90
22908;DHT22;11620;50.050;8.690;2023-08-31T10:34:03;16.50;99.90
22908;DHT22;11620;50.050;8.690;2023-08-31T10:36:50;16.30;99.90
22908;DHT22;11620;50.050;8.690;2023-08-31T10:39:38;15.90;99.90
22908;DHT22;11620;50.050;8.690;2023-08-31T10:42:25;15.80;99.90
22908;DHT22;11620;50.050;8.690;2023-08-31T10:45:11;16.00;99.90
22908;DHT22;11620;50.050;8.690;2023-08-31T10:48:01;16.10;99.90
22908;DHT22;11620;50.050;8.690;2023-08-31T10:50:48;16.10;99.90
22908;DHT22;11620;50.050;8.690;2023-08-31T10:53:36;16.20;99.90
22908;DHT22;11620;50.050;8.690;2023-08-31T10:56:22;16.60;99.90
22908;DHT22;11620;50.050;8.690;2023-08-31T10:59:08;16.70;99.90
22908;DHT22;11620;50.050;8.690;2023-08-31T11:01:56;16.60;99.90
22908;DHT22;11620;50.050;8.690;2023-08-31T11:07:58;16.50;99.90
22908;DHT22;11620;50.050;8.690;2023-08-31T11:10:46;16.60;99.90
22908;DHT22;11620;50.050;8.690;2023-08-31T11:13:32;16.50;99.90
22908;DHT22;11620;50.050;8.690;2023-08-31T11:16:18;16.60;99.90
22908;DHT22;11620;50.050;8.690;2023-08-31T11:19:05;16.70;99.90
22908;DHT22;11620;50.050;8.690;2023-08-31T11:21:51;16.70;99.90
22908;DHT22;11620;50.050;8.690;2023-08-31T11:24:38;16.70;99.90
22908;DHT22;11620;50.050;8.690;2023-08-31T11:27:25;16.80;99.90
22908;DHT22;11620;50.050;8.690;2023-08-31T11:30:17;16.90;99.90
22908;DHT22;11620;50.050;8.690;2023-08-31T11:33:06;17.00;99.90
22908;DHT22;11620;50.050;8.690;2023-08-31T11:35:53;16.90;99.90
22908;DHT22;11620;50.050;8.690;2023-08-31T11:38:40;16.90;99.90
22908;DHT22;11620;50.050;8.690;2023-08-31T11:41:31;17.00;99.90
22908;DHT22;11620;50.050;8.690;2023-08-31T11:44:18;17.10;99.90
22908;DHT22;11620;50.050;8.690;2023-08-31T11:47:05;17.10;99.90
22908;DHT22;11620;50.050;8.690;2023-08-31T11:49:52;17.20;99.90
22908;DHT22;11620;50.050;8.690;2023-08-31T11:52:39;17.10;99.90
22908;DHT22;11620;50.050;8.690;2023-08-31T11:55:25;16.80;99.90
22908;DHT22;11620;50.050;8.690;2023-08-31T11:58:12;16.60;99.90
22908;DHT22;11620;50.050;8.690;2023-08-31T12:00:59;16.50;99.90
22908;DHT22;11620;50.050;8.690;2023-08-31T12:03:46;16.60;99.90
22908;DHT22;11620;50.050;8.690;2023-08-31T12:06:33;16.70;99.90
22908;DHT22;11620;50.050;8.690;2023-08-31T12:09:20;16.80;99.90
22908;DHT22;11620;50.050;8.690;2023-08-31T12:12:07;16.90;99.90
22908;DHT22;11620;50.050;8.690;2023-08-31T12:14:54;16.80;99.90
22908;DHT22;11620;50.050;8.690;2023-08-31T12:17:41;16.70;99.90
22908;DHT22;11620;50.050;8.690;2023-08-31T12:20:29;16.70;99.90
22908;DHT22;11620;50.050;8.690;2023-08-31T12:23:15;16.70;99.90
22908;DHT22;11620;50.050;8.690;2023-08-31T12:26:02;16.60;99.90
22908;DHT22;11620;50.050;8.690;2023-08-31T12:28:48;16.40;99.90
22908;DHT22;11620;50.050;8.690;2023-08-31T12:31:36;16.30;99.90
22908;DHT22;11620;50.050;8.690;2023-08-31T12:34:23;16.20;99.90
22908;DHT22;11620;50.050;8.690;2023-08-31T12:37:09;16.30;99.90
22908;DHT22;11620;50.050;8.690;2023-08-31T12:39:56;16.40;99.90
22908;DHT22;11620;50.050;8.690;2023-08-31T12:42:42;16.60;99.90
22908;DHT22;11620;50.050;8.690;2023-08-31T12:45:28;16.70;99.90
22908;DHT22;11620;50.050;8.690;2023-08-31T12:48:15;16.80;99.90
22908;DHT22;11620;50.050;8.690;2023-08-31T12:51:01;16.90;99.90
22908;DHT22;11620;50.050;8.690;2023-08-31T12:53:47;16.90;99.90
22908;DHT22;11620;50.050;8.690;2023-08-31T12:56:34;17.00;99.90
22908;DHT22;11620;50.050;8.690;2023-08-31T12:59:20;17.20;99.90
22908;DHT22;11620;50.050;8.690;2023-08-31T13:02:07;17.70;99.90
22908;DHT22;11620;50.050;8.690;2023-08-31T13:04:56;18.00;99.90
22908;DHT22;11620;50.050;8.690;2023-08-31T13:07:43;18.50;99.90
22908;DHT22;11620;50.050;8.690;2023-08-31T13:10:29;18.60;99.90
22908;DHT22;11620;50.050;8.690;2023-08-31T13:13:15;18.40;99.90
22908;DHT22;11620;50.050;8.690;2023-08-31T13:16:02;18.80;99.90
22908;DHT22;11620;50.050;8.690;2023-08-31T13:18:48;18.90;99.90
22908;DHT22;11620;50.050;8.690;2023-08-31T13:21:35;18.90;99.90
22908;DHT22;11620;50.050;8.690;2023-08-31T13:24:21;19.30;99.90
22908;DHT22;11620;50.050;8.690;2023-08-31T13:27:07;19.40;99.90
22908;DHT22;11620;50.050;8.690;2023-08-31T13:29:54;19.50;99.90
22908;DHT22;11620;50.050;8.690;2023-08-31T13:32:40;19.40;99.90
22908;DHT22;11620;50.050;8.690;2023-08-31T13:35:27;19.30;99.90
22908;DHT22;11620;50.050;8.690;2023-08-31T13:38:13;19.40;99.90
22908;DHT22;11620;50.050;8.690;2023-08-31T13:40:59;19.30;99.90
22908;DHT22;11620;50.050;8.690;2023-08-31T13:43:46;19.50;99.90
22908;DHT22;11620;50.050;8.690;2023-08-31T13:46:32;19.60;99.90
22908;DHT22;11620;50.050;8.690;2023-08-31T13:49:18;19.40;99.90
22908;DHT22;11620;50.050;8.690;2023-08-31T13:52:05;19.40;99.90
22908;DHT22;11620;50.050;8.690;2023-08-31T13:54:51;19.50;99.90
22908;DHT22;11620;50.050;8.690;2023-08-31T13:57:41;19.50;99.90
22908;DHT22;11620;50.050;8.690;2023-08-31T14:00:28;19.50;99.90
22908;DHT22;11620;50.050;8.690;2023-08-31T14:03:14;19.60;99.90
22908;DHT22;11620;50.050;8.690;2023-08-31T14:06:00;19.80;99.90
22908;DHT22;11620;50.050;8.690;2023-08-31T14:08:46;19.50;99.90
22908;DHT22;11620;50.050;8.690;2023-08-31T14:11:33;19.50;99.90
22908;DHT22;11620;50.050;8.690;2023-08-31T14:14:19;19.70;99.90
22908;DHT22;11620;50.050;8.690;2023-08-31T14:17:07;20.00;99.90
22908;DHT22;11620;50.050;8.690;2023-08-31T14:19:54;20.00;99.90
22908;DHT22;11620;50.050;8.690;2023-08-31T14:22:41;19.60;99.90
22908;DHT22;11620;50.050;8.690;2023-08-31T14:25:29;19.60;99.90
22908;DHT22;11620;50.050;8.690;2023-08-31T14:28:19;19.70;99.90
22908;DHT22;11620;50.050;8.690;2023-08-31T14:31:06;19.70;99.90
22908;DHT22;11620;50.050;8.690;2023-08-31T14:33:52;19.70;99.90
22908;DHT22;11620;50.050;8.690;2023-08-31T14:36:40;19.80;99.90
22908;DHT22;11620;50.050;8.690;2023-08-31T14:39:26;19.50;99.90
22908;DHT22;11620;50.050;8.690;2023-08-31T14:42:15;19.20;99.90
22908;DHT22;11620;50.050;8.690;2023-08-31T14:45:03;18.90;99.90
22908;DHT22;11620;50.050;8.690;2023-08-31T14:47:50;18.70;99.90
22908;DHT22;11620;50.050;8.690;2023-08-31T14:50:41;18.60;99.90
22908;DHT22;11620;50.050;8.690;2023-08-31T14:53:28;18.50;99.90
22908;DHT22;11620;50.050;8.690;2023-08-31T14:56:14;18.50;99.90
22908;DHT22;11620;50.050;8.690;2023-08-31T14:59:01;18.60;99.90
22908;DHT22;11620;50.050;8.690;2023-08-31T15:01:48;18.60;99.90
22908;DHT22;11620;50.050;8.690;2023-08-31T15:04:34;18.70;99.90
22908;DHT22;11620;50.050;8.690;2023-08-31T15:07:20;18.80;99.90
22908;DHT22;11620;50.050;8.690;2023-08-31T15:10:07;18.90;99.90
22908;DHT22;11620;50.050;8.690;2023-08-31T15:12:53;18.80;99.90
22908;DHT22;11620;50.050;8.690;2023-08-31T15:15:44;18.80;99.90
22908;DHT22;11620;50.050;8.690;2023-08-31T15:18:31;18.90;99.90
22908;DHT22;11620;50.050;8.690;2023-08-31T15:21:18;18.80;99.90
22908;DHT22;11620;50.050;8.690;2023-08-31T15:24:05;18.90;99.90
22908;DHT22;11620;50.050;8.690;2023-08-31T15:26:51;19.00;99.90
22908;DHT22;11620;50.050;8.690;2023-08-31T15:29:37;19.10;99.90
22908;DHT22;11620;50.050;8.690;2023-08-31T15:32:24;18.80;99.90
22908;DHT22;11620;50.050;8.690;2023-08-31T15:35:10;18.60;99.90
22908;DHT22;11620;50.050;8.690;2023-08-31T15:37:58;18.30;99.90
22908;DHT22;11620;50.050;8.690;2023-08-31T15:40:47;18.20;99.90
22908;DHT22;11620;50.050;8.690;2023-08-31T15:43:35;18.20;99.90
22908;DHT22;11620;50.050;8.690;2023-08-31T15:46:23;18.00;99.90
22908;DHT22;11620;50.050;8.690;2023-08-31T15:49:09;18.00;99.90
22908;DHT22;11620;50.050;8.690;2023-08-31T15:51:55;17.80;99.90
22908;DHT22;11620;50.050;8.690;2023-08-31T15:54:41;17.80;99.90
22908;DHT22;11620;50.050;8.690;2023-08-31T15:57:28;17.90;99.90
22908;DHT22;11620;50.050;8.690;2023-08-31T16:00:14;17.80;99.90
22908;DHT22;11620;50.050;8.690;2023-08-31T16:03:02;18.00;99.90
22908;DHT22;11620;50.050;8.690;2023-08-31T16:05:49;17.90;99.90
22908;DHT22;11620;50.050;8.690;2023-08-31T16:08:35;17.90;99.90
22908;DHT22;11620;50.050;8.690;2023-08-31T16:11:22;17.80;99.90
22908;DHT22;11620;50.050;8.690;2023-08-31T16:14:10;17.60;99.90
22908;DHT22;11620;50.050;8.690;2023-08-31T16:16:56;17.70;99.90
22908;DHT22;11620;50.050;8.690;2023-08-31T16:19:43;17.60;99.90
22908;DHT22;11620;50.050;8.690;2023-08-31T16:22:29;17.70;99.90
22908;DHT22;11620;50.050;8.690;2023-08-31T16:25:16;17.60;99.90
22908;DHT22;11620;50.050;8.690;2023-08-31T16:28:05;17.60;99.90
22908;DHT22;11620;50.050;8.690;2023-08-31T16:30:51;17.60;99.90
22908;DHT22;11620;50.050;8.690;2023-08-31T16:33:38;17.60;99.90
22908;DHT22;11620;50.050;8.690;2023-08-31T16:36:24;17.60;99.90
22908;DHT22;11620;50.050;8.690;2023-08-31T16:39:11;17.40;99.90
22908;DHT22;11620;50.050;8.690;2023-08-31T16:41:59;17.40;99.90
22908;DHT22;11620;50.050;8.690;2023-08-31T16:44:45;17.40;99.90
22908;DHT22;11620;50.050;8.690;2023-08-31T16:47:22;17.30;99.90
22908;DHT22;11620;50.050;8.690;2023-08-31T16:50:09;17.30;99.90
22908;DHT22;11620;50.050;8.690;2023-08-31T16:52:57;17.40;99.90
22908;DHT22;11620;50.050;8.690;2023-08-31T16:55:43;17.30;99.90
22908;DHT22;11620;50.050;8.690;2023-08-31T16:58:29;17.40;99.90
22908;DHT22;11620;50.050;8.690;2023-08-31T17:01:16;17.20;99.90
22908;DHT22;11620;50.050;8.690;2023-08-31T17:04:02;17.20;99.90
22908;DHT22;11620;50.050;8.690;2023-08-31T17:06:50;17.30;99.90
22908;DHT22;11620;50.050;8.690;2023-08-31T17:09:36;17.20;99.90
22908;DHT22;11620;50.050;8.690;2023-08-31T17:12:23;17.10;99.90
22908;DHT22;11620;50.050;8.690;2023-08-31T17:15:09;17.20;99.90
22908;DHT22;11620;50.050;8.690;2023-08-31T17:17:56;17.10;99.90
22908;DHT22;11620;50.050;8.690;2023-08-31T17:20:42;17.20;99.90
22908;DHT22;11620;50.050;8.690;2023-08-31T17:23:28;17.20;99.90
22908;DHT22;11620;50.050;8.690;2023-08-31T17:26:21;17.30;99.90
22908;DHT22;11620;50.050;8.690;2023-08-31T17:29:08;17.10;99.90
22908;DHT22;11620;50.050;8.690;2023-08-31T17:31:54;17.10;99.90
22908;DHT22;11620;50.050;8.690;2023-08-31T17:34:40;17.00;99.90
22908;DHT22;11620;50.050;8.690;2023-08-31T17:37:27;17.10;99.90
22908;DHT22;11620;50.050;8.690;2023-08-31T17:40:13;16.90;99.90